Time;durP1;ratioP1;P1;durP2;ratioP2;P2;SDS_P1;SDS_P2;PMS_P1;PMS_P2;Temp;Humidity;BMP_temperature;BMP_pressure;BME280_temperature;BME280_humidity;BME280_pressure;Samples;Min_cycle;Max_cycle;Signal;HPM_P1;HPM_P2
2023/09/11 00:02:11;;;;;;;11.97;10.73;;;18.80;99.90;;;;;;5073029;28;20558;-56
2023/09/11 00:04:37;;;;;;;11.77;10.57;;;18.80;99.90;;;;;;5073233;28;20439;-56
2023/09/11 00:07:04;;;;;;;12.73;11.53;;;18.80;99.90;;;;;;5073176;28;20442;-56
2023/09/11 00:09:31;;;;;;;13.27;12.07;;;18.70;99.90;;;;;;5072739;28;20447;-58
2023/09/11 00:11:58;;;;;;;13.37;12.27;;;18.70;99.90;;;;;;5072794;28;20471;-56
2023/09/11 00:14:26;;;;;;;12.80;11.60;;;18.70;99.90;;;;;;5073136;28;20807;-58
2023/09/11 00:16:53;;;;;;;12.93;11.70;;;18.70;99.90;;;;;;5072950;28;20482;-56
2023/09/11 00:19:19;;;;;;;12.73;11.53;;;18.70;99.90;;;;;;5072760;28;20450;-58
2023/09/11 00:21:46;;;;;;;11.80;10.70;;;18.60;99.90;;;;;;5072503;28;20459;-56
2023/09/11 00:24:13;;;;;;;12.10;11.00;;;18.60;99.90;;;;;;5072848;28;20443;-56
2023/09/11 00:26:39;;;;;;;15.33;11.30;;;18.60;99.90;;;;;;5072846;28;20446;-57
2023/09/11 00:29:06;;;;;;;16.90;13.23;;;18.60;99.90;;;;;;5076920;28;20811;-57
2023/09/11 00:31:34;;;;;;;13.17;11.53;;;18.60;99.90;;;;;;5076890;28;20459;-58
2023/09/11 00:34:01;;;;;;;13.00;11.80;;;18.50;99.90;;;;;;5076991;28;20438;-57
2023/09/11 00:36:27;;;;;;;12.20;10.90;;;18.50;99.90;;;;;;5076826;28;20479;-57
2023/09/11 00:38:54;;;;;;;13.20;11.87;;;18.40;99.90;;;;;;5077012;28;20438;-57
2023/09/11 00:41:21;;;;;;;13.43;12.23;;;18.40;99.90;;;;;;5076949;28;20459;-58
2023/09/11 00:43:48;;;;;;;15.13;11.63;;;18.30;99.90;;;;;;5076437;28;20960;-58
2023/09/11 00:46:14;;;;;;;12.03;10.93;;;18.30;99.90;;;;;;5076769;28;20475;-57
2023/09/11 00:48:43;;;;;;;12.30;11.10;;;18.30;99.90;;;;;;5076508;28;20439;-57
2023/09/11 00:51:10;;;;;;;13.00;11.70;;;18.20;99.90;;;;;;5076589;28;20450;-58
2023/09/11 00:53:36;;;;;;;13.27;11.97;;;18.20;99.90;;;;;;5076355;28;20442;-57
2023/09/11 00:56:03;;;;;;;15.70;13.63;;;18.20;99.90;;;;;;5076124;28;20435;-59
2023/09/11 00:58:30;;;;;;;14.40;11.70;;;18.10;99.90;;;;;;5076337;28;20479;-59
2023/09/11 01:00:57;;;;;;;14.07;12.60;;;18.10;99.90;;;;;;5075843;28;20808;-59
2023/09/11 01:03:24;;;;;;;13.83;12.50;;;18.10;99.90;;;;;;5076018;28;20955;-58
2023/09/11 01:05:52;;;;;;;13.00;11.90;;;18.10;99.90;;;;;;5075957;28;20962;-57
2023/09/11 01:08:20;;;;;;;13.73;12.53;;;18.10;99.90;;;;;;5076207;28;20443;-57
2023/09/11 01:10:48;;;;;;;14.87;13.20;;;18.10;99.90;;;;;;5075767;28;20466;-56
2023/09/11 01:13:14;;;;;;;13.30;12.10;;;18.10;99.90;;;;;;5075837;28;20462;-57
2023/09/11 01:15:47;;;;;;;12.67;11.47;;;18.00;99.90;;;;;;5076069;28;20439;-57
2023/09/11 01:18:19;;;;;;;13.03;11.70;;;18.00;99.90;;;;;;5075980;28;20481;-57
2023/09/11 01:21:01;;;;;;;13.10;11.87;;;18.00;99.90;;;;;;5076028;28;20427;-56
2023/09/11 01:23:51;;;;;;;12.70;11.50;;;18.00;99.90;;;;;;5082027;28;20476;-56
2023/09/11 01:26:49;;;;;;;12.27;11.13;;;18.00;99.90;;;;;;5084926;28;20767;-57
2023/09/11 01:29:18;;;;;;;13.20;12.10;;;18.00;99.90;;;;;;5084175;28;20430;-57
2023/09/11 01:31:47;;;;;;;14.00;12.60;;;18.00;99.90;;;;;;5083473;28;20463;-56
2023/09/11 01:34:14;;;;;;;13.17;11.87;;;18.00;99.90;;;;;;5083394;28;20451;-56
2023/09/11 01:36:41;;;;;;;13.90;12.60;;;18.00;99.90;;;;;;5084123;28;20439;-57
2023/09/11 01:39:08;;;;;;;13.20;12.10;;;18.00;99.90;;;;;;5083931;28;20465;-55
2023/09/11 01:41:37;;;;;;;13.37;12.17;;;18.00;99.90;;;;;;5082995;28;20470;-57
2023/09/11 01:44:10;;;;;;;13.90;12.67;;;18.00;99.90;;;;;;5079485;28;20453;-57
2023/09/11 01:46:38;;;;;;;13.17;11.97;;;18.00;99.90;;;;;;5077278;28;20427;-57
2023/09/11 01:49:07;;;;;;;14.73;13.40;;;17.90;99.90;;;;;;5076245;28;20517;-57
2023/09/11 01:51:37;;;;;;;15.80;13.60;;;17.90;99.90;;;;;;5075903;28;20999;-57
2023/09/11 01:54:04;;;;;;;15.23;13.63;;;17.90;99.90;;;;;;5075540;28;20444;-56
2023/09/11 01:56:31;;;;;;;14.20;13.00;;;17.90;99.90;;;;;;5075613;28;20435;-57
2023/09/11 01:58:58;;;;;;;14.53;13.20;;;17.90;99.90;;;;;;5075777;28;20443;-57
2023/09/11 02:03:53;;;;;;;15.63;14.17;;;17.90;99.90;;;;;;5076656;22;20480;-56
2023/09/11 02:06:19;;;;;;;17.30;15.70;;;17.80;99.90;;;;;;5055117;28;20436;-56
2023/09/11 02:08:46;;;;;;;15.17;13.67;;;17.70;99.90;;;;;;5055146;28;20432;-55
2023/09/11 02:11:13;;;;;;;15.10;13.47;;;17.80;99.90;;;;;;5055038;28;20442;-56
2023/09/11 02:13:39;;;;;;;14.03;12.73;;;17.70;99.90;;;;;;5054688;28;20475;-56
2023/09/11 02:16:06;;;;;;;13.97;12.57;;;17.70;99.90;;;;;;5054938;28;20436;-56
2023/09/11 02:18:33;;;;;;;14.03;12.53;;;17.70;99.90;;;;;;5054843;28;20479;-55
2023/09/11 02:21:01;;;;;;;15.13;13.67;;;17.70;99.90;;;;;;5054955;28;20444;-56
2023/09/11 02:23:28;;;;;;;14.20;12.83;;;17.70;99.90;;;;;;5054820;28;20467;-56
2023/09/11 02:25:55;;;;;;;15.00;13.50;;;17.60;99.90;;;;;;5054923;28;20451;-55
2023/09/11 02:28:21;;;;;;;15.23;13.80;;;17.60;99.90;;;;;;5055088;28;20440;-57
2023/09/11 02:30:48;;;;;;;16.43;12.80;;;17.70;99.90;;;;;;5055151;28;20444;-56
2023/09/11 02:33:15;;;;;;;16.50;14.50;;;17.70;99.90;;;;;;5054458;28;20848;-56
2023/09/11 02:35:42;;;;;;;15.47;13.20;;;17.70;99.90;;;;;;5054657;28;20459;-55
2023/09/11 02:38:10;;;;;;;16.83;15.23;;;17.70;99.90;;;;;;5054843;28;20480;-55
2023/09/11 02:40:37;;;;;;;15.23;13.63;;;17.70;99.90;;;;;;5054797;28;20448;-56
2023/09/11 02:43:04;;;;;;;15.73;13.87;;;17.70;99.90;;;;;;5054222;28;20991;-56
2023/09/11 02:45:30;;;;;;;14.80;13.27;;;17.70;99.90;;;;;;5054856;28;20452;-57
2023/09/11 02:47:57;;;;;;;20.13;13.70;;;17.70;99.90;;;;;;5054786;28;20448;-56
2023/09/11 02:50:24;;;;;;;14.33;13.00;;;17.70;99.90;;;;;;5053502;28;20918;-56
2023/09/11 02:52:50;;;;;;;15.10;13.50;;;17.60;99.90;;;;;;5054283;28;20467;-56
2023/09/11 02:55:18;;;;;;;15.57;13.77;;;17.60;99.90;;;;;;5054239;28;20948;-57
2023/09/11 02:57:45;;;;;;;15.40;13.80;;;17.60;99.90;;;;;;5054364;28;20486;-56
2023/09/11 03:00:13;;;;;;;13.50;12.20;;;17.60;99.90;;;;;;5054344;28;20448;-56
2023/09/11 03:02:39;;;;;;;15.10;13.50;;;17.60;99.90;;;;;;5054009;28;20476;-56
2023/09/11 03:05:07;;;;;;;16.30;14.77;;;17.60;99.90;;;;;;5054151;28;20440;-56
2023/09/11 03:07:33;;;;;;;14.47;13.20;;;17.60;99.90;;;;;;5053800;28;20472;-56
2023/09/11 03:10:00;;;;;;;15.83;14.07;;;17.60;99.90;;;;;;5054005;28;20467;-56
2023/09/11 03:12:29;;;;;;;14.53;12.63;;;17.50;99.90;;;;;;5053632;28;20977;-55
2023/09/11 03:14:58;;;;;;;13.40;12.20;;;17.50;99.90;;;;;;5053897;28;20444;-56
2023/09/11 03:17:25;;;;;;;14.83;13.40;;;17.50;99.90;;;;;;5053542;28;20835;-56
2023/09/11 03:19:52;;;;;;;13.23;12.03;;;17.40;99.90;;;;;;5054085;28;20459;-55
2023/09/11 03:22:19;;;;;;;15.63;14.03;;;17.40;99.90;;;;;;5053938;28;20456;-56
2023/09/11 03:24:45;;;;;;;15.67;13.20;;;17.40;99.90;;;;;;5053836;28;20932;-54
2023/09/11 03:27:12;;;;;;;17.07;13.43;;;17.40;99.90;;;;;;5053665;28;20440;-55
2023/09/11 03:29:40;;;;;;;16.23;13.23;;;17.40;99.90;;;;;;5053440;28;20775;-55
2023/09/11 03:32:07;;;;;;;15.27;13.80;;;17.30;99.90;;;;;;5053459;28;20456;-56
2023/09/11 03:34:34;;;;;;;18.50;13.10;;;17.40;99.90;;;;;;5053304;28;20440;-54
2023/09/11 03:37:00;;;;;;;16.93;15.13;;;17.30;99.90;;;;;;5053542;28;20447;-55
2023/09/11 03:39:27;;;;;;;16.33;14.60;;;17.30;99.90;;;;;;5054458;28;20459;-55
2023/09/11 03:41:54;;;;;;;16.70;14.80;;;17.30;99.90;;;;;;5053309;28;20456;-55
2023/09/11 03:44:20;;;;;;;21.83;14.10;;;17.30;99.90;;;;;;5053549;28;20439;-55
2023/09/11 03:46:48;;;;;;;19.33;14.20;;;17.30;99.90;;;;;;5053348;28;20444;-55
2023/09/11 03:49:15;;;;;;;14.60;12.40;;;17.30;99.90;;;;;;5054237;28;20790;-55
2023/09/11 03:51:42;;;;;;;14.70;13.20;;;17.30;99.90;;;;;;5053817;28;20447;-56
2023/09/11 03:54:09;;;;;;;16.23;13.57;;;17.20;99.90;;;;;;5053295;28;20805;-55
2023/09/11 03:56:36;;;;;;;15.03;13.50;;;17.30;99.90;;;;;;5053296;28;20837;-55
2023/09/11 03:59:03;;;;;;;15.20;13.67;;;17.20;99.90;;;;;;5053107;28;20490;-55
2023/09/11 04:01:29;;;;;;;14.90;13.30;;;17.30;99.90;;;;;;5053000;28;20490;-55
2023/09/11 04:03:57;;;;;;;14.97;13.57;;;17.30;99.90;;;;;;5052601;28;20444;-56
2023/09/11 04:06:24;;;;;;;14.73;13.40;;;17.20;99.90;;;;;;5052656;28;20955;-56
2023/09/11 04:12:14;;;;;;;15.70;13.33;;;17.20;99.90;;;;;;5110549;27;20619;-56
2023/09/11 04:14:41;;;;;;;15.10;13.40;;;17.20;99.90;;;;;;5110839;28;20458;-56
2023/09/11 04:17:10;;;;;;;15.27;13.70;;;17.20;99.90;;;;;;5110699;28;20808;-56
2023/09/11 04:19:37;;;;;;;15.60;13.70;;;17.10;99.90;;;;;;5110659;28;20441;-56
2023/09/11 04:22:04;;;;;;;15.77;14.20;;;17.20;99.90;;;;;;5092688;28;20459;-56
2023/09/11 04:24:31;;;;;;;17.13;13.60;;;17.20;99.90;;;;;;5089849;28;20817;-56
2023/09/11 04:26:58;;;;;;;18.10;13.97;;;17.10;99.90;;;;;;5089843;28;20434;-56
2023/09/11 04:29:26;;;;;;;14.67;13.37;;;17.10;99.90;;;;;;5090140;28;20461;-55
2023/09/11 04:31:52;;;;;;;15.93;14.53;;;17.10;99.90;;;;;;5105586;28;20496;-56
2023/09/11 04:34:19;;;;;;;17.20;14.03;;;17.10;99.90;;;;;;5110281;28;20438;-56
2023/09/11 04:36:46;;;;;;;15.60;14.03;;;17.10;99.90;;;;;;5110187;28;20433;-56
2023/09/11 04:39:13;;;;;;;16.37;14.10;;;17.10;99.90;;;;;;5109765;28;20942;-56
2023/09/11 04:41:40;;;;;;;16.00;13.37;;;17.10;99.90;;;;;;5096044;28;20530;-56
2023/09/11 04:44:07;;;;;;;17.07;15.30;;;17.10;99.90;;;;;;5090579;28;20442;-56
2023/09/11 04:46:35;;;;;;;15.97;14.37;;;17.10;99.90;;;;;;5090137;28;20442;-57
2023/09/11 04:49:02;;;;;;;19.57;14.63;;;17.20;99.90;;;;;;5089788;28;20570;-56
2023/09/11 04:51:29;;;;;;;17.67;14.90;;;17.20;99.90;;;;;;5101951;28;20481;-57
2023/09/11 04:53:55;;;;;;;16.60;14.90;;;17.20;99.90;;;;;;5110490;28;20931;-57
2023/09/11 04:56:22;;;;;;;17.03;14.00;;;17.20;99.90;;;;;;5111028;28;20437;-56
2023/09/11 04:58:49;;;;;;;14.80;13.40;;;17.20;99.90;;;;;;5111179;28;20468;-56
2023/09/11 05:01:16;;;;;;;18.77;14.20;;;17.20;99.90;;;;;;5101058;28;20453;-56
2023/09/11 05:03:44;;;;;;;15.40;13.70;;;17.20;99.90;;;;;;5090411;28;20458;-56
2023/09/11 05:06:10;;;;;;;15.77;14.23;;;17.20;99.90;;;;;;5091229;28;20449;-57
2023/09/11 05:08:37;;;;;;;16.40;14.63;;;17.30;99.90;;;;;;5090033;28;20517;-55
2023/09/11 05:11:04;;;;;;;15.37;13.77;;;17.30;99.90;;;;;;5097280;28;20556;-57
2023/09/11 05:13:31;;;;;;;15.23;13.67;;;17.30;99.90;;;;;;5109465;28;20975;-56
2023/09/11 05:15:57;;;;;;;17.77;15.20;;;17.40;99.90;;;;;;5110314;28;20445;-57
